createdAt,value
2022-09-07T00:00:07.861Z,16.30
2022-09-07T00:02:34.967Z,16.30
2022-09-07T00:05:02.012Z,16.30
2022-09-07T00:07:29.702Z,16.30
2022-09-07T00:09:56.851Z,16.20
2022-09-07T00:12:23.909Z,16.20
2022-09-07T00:14:51.124Z,16.20
2022-09-07T00:17:18.357Z,16.20
2022-09-07T00:19:45.404Z,16.20
2022-09-07T00:22:12.509Z,16.20
2022-09-07T00:24:39.581Z,16.10
2022-09-07T00:27:06.669Z,16.10
2022-09-07T00:29:34.966Z,16.10
2022-09-07T00:32:02.150Z,16.10
2022-09-07T00:34:29.264Z,16.10
2022-09-07T00:36:56.404Z,16.10
2022-09-07T00:39:23.345Z,16.00
2022-09-07T00:41:50.418Z,16.00
2022-09-07T00:44:42.578Z,16.00
2022-09-07T00:47:28.575Z,15.90
2022-09-07T00:50:02.749Z,15.90
2022-09-07T00:52:33.186Z,15.90
2022-09-07T00:55:06.306Z,15.90
2022-09-07T00:57:34.537Z,15.90
2022-09-07T01:00:03.079Z,15.90
2022-09-07T01:02:30.508Z,15.80
2022-09-07T01:05:09.643Z,15.80
2022-09-07T01:07:37.213Z,15.80
2022-09-07T01:10:04.650Z,15.80
2022-09-07T01:12:31.681Z,15.80
2022-09-07T01:14:59.531Z,15.80
2022-09-07T01:17:41.441Z,15.80
2022-09-07T01:20:11.803Z,15.80
2022-09-07T01:23:02.978Z,15.80
2022-09-07T01:25:42.219Z,15.80
2022-09-07T01:28:21.218Z,15.70
2022-09-07T01:31:03.945Z,15.70
2022-09-07T01:33:58.891Z,15.70
2022-09-07T01:37:03.606Z,15.70
2022-09-07T01:39:54.085Z,15.70
2022-09-07T01:42:26.349Z,15.60
2022-09-07T01:44:57.936Z,15.60
2022-09-07T01:47:31.409Z,15.60
2022-09-07T01:50:20.852Z,15.60
2022-09-07T01:52:54.096Z,15.60
2022-09-07T01:55:44.621Z,15.60
2022-09-07T01:58:23.391Z,15.60
2022-09-07T02:01:12.764Z,15.50
2022-09-07T02:03:55.358Z,15.50
2022-09-07T02:06:47.484Z,15.60
2022-09-07T02:09:31.860Z,15.50
2022-09-07T02:12:03.438Z,15.50
2022-09-07T02:14:40.910Z,15.50
2022-09-07T02:17:22.515Z,15.50
2022-09-07T02:19:54.354Z,15.50
2022-09-07T02:22:26.804Z,15.50
2022-09-07T02:24:58.200Z,15.50
2022-09-07T02:27:35.722Z,15.50
2022-09-07T02:30:03.088Z,15.50
2022-09-07T02:32:30.109Z,15.50
2022-09-07T02:34:57.157Z,15.50
2022-09-07T02:37:27.016Z,15.50
2022-09-07T02:39:54.622Z,15.60
2022-09-07T02:42:22.286Z,15.50
2022-09-07T02:44:50.370Z,15.50
2022-09-07T02:47:35.326Z,15.60
2022-09-07T02:50:29.353Z,15.60
2022-09-07T02:53:35.859Z,15.60
2022-09-07T02:56:02.852Z,15.60
2022-09-07T02:58:47.964Z,15.70
2022-09-07T03:01:28.938Z,15.70
2022-09-07T03:04:09.645Z,15.70
2022-09-07T03:06:41.011Z,15.70
2022-09-07T03:09:15.367Z,15.70
2022-09-07T03:11:43.809Z,15.70
2022-09-07T03:14:25.093Z,15.70
2022-09-07T03:16:56.132Z,15.70
2022-09-07T03:19:23.328Z,15.80
2022-09-07T03:21:50.303Z,15.80
2022-09-07T03:24:17.525Z,15.80
2022-09-07T03:26:48.677Z,15.80
2022-09-07T03:29:16.199Z,15.80
2022-09-07T03:31:43.332Z,15.80
2022-09-07T03:34:10.709Z,15.80
2022-09-07T03:36:37.706Z,15.80
2022-09-07T03:39:06.700Z,15.80
2022-09-07T03:41:34.311Z,15.80
2022-09-07T03:44:08.084Z,15.80
2022-09-07T03:46:35.454Z,15.80
2022-09-07T03:49:02.617Z,15.80
2022-09-07T03:51:29.761Z,15.80
2022-09-07T03:53:57.455Z,15.80
2022-09-07T03:56:25.117Z,15.80
2022-09-07T03:58:54.334Z,15.70
2022-09-07T04:01:24.644Z,15.70
2022-09-07T04:03:52.167Z,15.70
2022-09-07T04:06:19.958Z,15.70
2022-09-07T04:08:47.233Z,15.70
2022-09-07T04:11:16.974Z,15.70
2022-09-07T04:13:44.736Z,15.60
2022-09-07T04:16:19.347Z,15.60
2022-09-07T04:18:47.051Z,15.60
2022-09-07T04:21:14.278Z,15.60
2022-09-07T04:23:42.927Z,15.60
2022-09-07T04:26:30.959Z,15.60
2022-09-07T04:28:59.074Z,15.60
2022-09-07T04:31:26.284Z,15.60
2022-09-07T04:33:54.252Z,15.50
2022-09-07T04:36:21.696Z,15.50
2022-09-07T04:38:59.478Z,15.50
2022-09-07T04:41:28.042Z,15.50
2022-09-07T04:43:55.985Z,15.50
2022-09-07T04:46:26.036Z,15.40
2022-09-07T04:48:58.225Z,15.40
2022-09-07T04:51:27.701Z,15.50
2022-09-07T04:53:57.025Z,15.50
2022-09-07T04:56:25.001Z,15.50
2022-09-07T04:58:52.388Z,15.50
2022-09-07T05:01:22.450Z,15.50
2022-09-07T05:03:50.431Z,15.50
2022-09-07T05:06:19.436Z,15.50
2022-09-07T05:08:50.917Z,15.50
2022-09-07T05:11:19.645Z,15.50
2022-09-07T05:13:46.635Z,15.50
2022-09-07T05:16:20.354Z,15.50
2022-09-07T05:18:52.865Z,15.50
2022-09-07T05:21:22.737Z,15.50
2022-09-07T05:23:54.175Z,15.50
2022-09-07T05:26:23.502Z,15.50
2022-09-07T05:28:52.175Z,15.60
2022-09-07T05:31:21.626Z,15.60
2022-09-07T05:36:41.879Z,15.60
2022-09-07T05:39:09.636Z,15.70
2022-09-07T05:41:37.101Z,15.70
2022-09-07T05:46:52.518Z,15.70
2022-09-07T05:49:19.501Z,15.70
2022-09-07T05:51:47.028Z,15.70
2022-09-07T05:54:14.307Z,15.70
2022-09-07T05:56:41.490Z,15.70
2022-09-07T05:59:08.561Z,15.80
2022-09-07T06:02:33.682Z,15.80
2022-09-07T06:05:03.507Z,15.80
2022-09-07T06:07:32.349Z,15.80
2022-09-07T06:12:49.106Z,15.80
2022-09-07T06:15:16.693Z,15.80
2022-09-07T06:17:43.687Z,15.80
2022-09-07T06:20:11.243Z,15.80
2022-09-07T06:22:38.757Z,15.90
2022-09-07T06:25:06.417Z,15.90
2022-09-07T06:27:33.495Z,15.90
2022-09-07T06:30:00.612Z,15.90
2022-09-07T06:32:43.301Z,15.90
2022-09-07T06:35:11.367Z,15.90
2022-09-07T06:37:38.821Z,16.00
2022-09-07T06:40:07.448Z,16.00
2022-09-07T06:42:34.564Z,16.00
2022-09-07T06:45:02.544Z,16.00
2022-09-07T06:47:29.585Z,16.00
2022-09-07T06:49:56.693Z,16.00
2022-09-07T06:52:23.855Z,16.00
2022-09-07T06:57:27.143Z,16.00
2022-09-07T06:59:54.324Z,16.00
2022-09-07T07:02:21.426Z,16.00
2022-09-07T07:04:49.595Z,16.00
2022-09-07T07:07:16.715Z,16.00
2022-09-07T07:09:43.745Z,15.90
2022-09-07T07:12:11.210Z,15.90
2022-09-07T07:14:42.681Z,15.90
2022-09-07T07:17:12.357Z,16.00
2022-09-07T07:19:39.473Z,16.00
2022-09-07T07:24:53.597Z,16.00
2022-09-07T07:27:22.077Z,16.00
2022-09-07T07:29:49.989Z,16.00
2022-09-07T07:32:17.081Z,16.00
2022-09-07T07:34:44.157Z,16.00
2022-09-07T07:37:11.150Z,16.00
2022-09-07T07:42:25.898Z,16.10
2022-09-07T07:47:40.199Z,16.10
2022-09-07T07:55:44.173Z,16.20
2022-09-07T07:58:12.964Z,16.20
2022-09-07T08:00:53.886Z,16.30
2022-09-07T08:03:25.564Z,16.30
2022-09-07T08:05:53.860Z,16.30
2022-09-07T08:08:23.353Z,16.30
2022-09-07T08:10:51.363Z,16.40
2022-09-07T08:13:19.311Z,16.40
2022-09-07T08:15:48.851Z,16.40
2022-09-07T08:18:18.185Z,16.50
2022-09-07T08:20:45.378Z,16.50
2022-09-07T08:23:12.359Z,16.50
2022-09-07T08:25:39.468Z,16.60
2022-09-07T08:28:06.676Z,16.70
2022-09-07T08:30:33.733Z,16.70
2022-09-07T08:33:00.791Z,16.80
2022-09-07T08:35:27.766Z,16.90
2022-09-07T08:37:54.766Z,16.90
2022-09-07T08:40:21.806Z,16.90
2022-09-07T08:43:15.669Z,16.90
2022-09-07T08:45:57.134Z,17.00
2022-09-07T08:48:33.328Z,17.00
2022-09-07T08:51:07.345Z,17.00
2022-09-07T08:53:39.624Z,17.00
2022-09-07T08:56:12.161Z,17.00
2022-09-07T08:58:49.155Z,17.00
2022-09-07T09:01:35.691Z,17.00
2022-09-07T09:04:19.021Z,17.10
2022-09-07T09:06:47.058Z,17.20
2022-09-07T09:09:47.057Z,17.40
2022-09-07T09:12:37.990Z,17.80
2022-09-07T09:15:26.552Z,18.10
2022-09-07T09:18:03.041Z,18.60
2022-09-07T09:20:44.771Z,18.90
2022-09-07T09:23:14.140Z,19.40
2022-09-07T09:25:55.526Z,19.90
2022-09-07T09:28:25.486Z,20.20
2022-09-07T09:30:54.881Z,20.40
2022-09-07T09:33:24.585Z,20.40
2022-09-07T09:35:54.430Z,20.40
2022-09-07T09:38:34.335Z,20.50
2022-09-07T09:41:08.835Z,20.70
2022-09-07T09:43:55.687Z,20.90
2022-09-07T09:46:35.340Z,21.10
2022-09-07T09:49:17.714Z,21.10
2022-09-07T09:54:41.373Z,20.80
2022-09-07T09:57:38.652Z,20.70
2022-09-07T10:00:11.534Z,20.60
2022-09-07T10:05:39.637Z,20.80
2022-09-07T10:08:17.965Z,20.80
2022-09-07T10:11:06.382Z,20.80
2022-09-07T10:14:05.563Z,20.70
2022-09-07T10:16:44.333Z,20.60
2022-09-07T10:19:36.634Z,20.50
2022-09-07T10:22:20.729Z,20.50
2022-09-07T10:24:47.798Z,21.00
2022-09-07T10:27:30.118Z,21.50
2022-09-07T10:29:57.629Z,22.10
2022-09-07T10:32:30.770Z,22.50
2022-09-07T10:35:05.282Z,22.90
2022-09-07T10:38:08.372Z,23.00
2022-09-07T10:40:44.207Z,23.20
2022-09-07T10:43:42.563Z,23.30
2022-09-07T10:49:33.860Z,23.70
2022-09-07T10:52:09.794Z,24.10
2022-09-07T10:54:42.390Z,24.50
2022-09-07T10:57:34.461Z,24.80
2022-09-07T11:00:14.753Z,25.20
2022-09-07T11:06:13.439Z,25.70
2022-09-07T11:09:18.098Z,25.70
2022-09-07T11:12:01.486Z,25.80
2022-09-07T11:14:34.801Z,25.80
2022-09-07T11:17:05.853Z,25.70
2022-09-07T11:19:56.184Z,25.50
2022-09-07T11:22:33.275Z,25.30
2022-09-07T11:28:01.807Z,24.80
2022-09-07T11:30:34.417Z,24.70
2022-09-07T11:33:12.892Z,24.70
2022-09-07T11:35:39.787Z,24.70
2022-09-07T11:38:33.610Z,24.80
2022-09-07T11:41:18.937Z,24.80
2022-09-07T11:44:02.044Z,24.90
2022-09-07T11:46:36.495Z,25.20
2022-09-07T11:49:07.272Z,25.40
2022-09-07T11:52:05.508Z,25.70
2022-09-07T11:54:53.345Z,26.00
2022-09-07T11:57:32.565Z,26.20
2022-09-07T12:00:17.301Z,26.30
2022-09-07T12:03:12.459Z,26.30
2022-09-07T12:05:51.444Z,26.10
2022-09-07T12:08:45.292Z,25.90
2022-09-07T12:11:24.370Z,25.70
2022-09-07T12:14:07.518Z,25.50
2022-09-07T12:16:53.116Z,25.30
2022-09-07T12:19:25.036Z,25.10
2022-09-07T12:21:51.992Z,24.90
2022-09-07T12:24:34.140Z,24.70
2022-09-07T12:27:02.722Z,24.50
2022-09-07T12:29:30.890Z,24.40
2022-09-07T12:32:53.150Z,24.20
2022-09-07T12:34:57.859Z,24.10
2022-09-07T12:37:35.753Z,23.90
2022-09-07T12:40:30.678Z,23.80
2022-09-07T12:43:12.862Z,23.80
2022-09-07T12:45:39.879Z,23.70
2022-09-07T12:48:16.017Z,23.60
2022-09-07T12:51:07.805Z,23.50
2022-09-07T12:53:52.097Z,23.30
2022-09-07T12:57:29.166Z,23.20
2022-09-07T12:59:41.144Z,23.10
2022-09-07T13:02:30.748Z,23.20
2022-09-07T13:05:06.340Z,23.20
2022-09-07T13:07:51.715Z,23.20
2022-09-07T13:10:28.086Z,23.20
2022-09-07T13:13:04.862Z,23.10
2022-09-07T13:15:38.871Z,23.10
2022-09-07T13:18:12.560Z,23.00
2022-09-07T13:20:41.574Z,22.90
2022-09-07T13:23:17.627Z,22.80
2022-09-07T13:25:48.378Z,22.70
2022-09-07T13:28:23.808Z,22.50
2022-09-07T13:31:11.141Z,22.30
2022-09-07T13:33:48.543Z,22.10
2022-09-07T13:36:25.852Z,22.00
2022-09-07T13:38:56.862Z,21.80
2022-09-07T13:41:32.152Z,21.60
2022-09-07T13:44:01.904Z,21.50
2022-09-07T13:46:34.715Z,21.40
2022-09-07T13:49:12.650Z,21.40
2022-09-07T13:51:57.203Z,21.40
2022-09-07T13:54:39.774Z,21.40
2022-09-07T13:57:39.396Z,21.40
2022-09-07T14:00:14.241Z,21.40
2022-09-07T14:02:42.357Z,21.50
2022-09-07T14:05:11.959Z,21.50
2022-09-07T14:07:46.003Z,21.50
2022-09-07T14:10:22.067Z,21.50
2022-09-07T14:12:51.785Z,21.50
2022-09-07T14:15:30.407Z,21.50
2022-09-07T14:18:07.372Z,21.50
2022-09-07T14:20:41.861Z,21.50
2022-09-07T14:23:19.489Z,21.50
2022-09-07T14:28:39.199Z,21.40
2022-09-07T14:31:11.733Z,21.40
2022-09-07T14:33:43.661Z,21.40
2022-09-07T14:36:39.314Z,21.40
2022-09-07T14:39:04.296Z,21.40
2022-09-07T14:41:34.737Z,21.50
2022-09-07T14:44:02.030Z,21.50
2022-09-07T14:46:34.403Z,21.50
2022-09-07T14:49:22.567Z,21.40
2022-09-07T14:51:50.187Z,21.50
2022-09-07T14:54:30.864Z,21.40
2022-09-07T14:57:01.960Z,21.40
2022-09-07T14:59:49.527Z,21.40
2022-09-07T15:02:24.093Z,21.40
2022-09-07T15:05:23.273Z,21.30
2022-09-07T15:07:55.509Z,21.20
2022-09-07T15:10:23.702Z,21.10
2022-09-07T15:12:52.330Z,21.10
2022-09-07T15:15:21.667Z,21.00
2022-09-07T15:17:49.489Z,21.00
2022-09-07T15:20:38.294Z,21.00
2022-09-07T15:23:24.133Z,21.00
2022-09-07T15:25:53.691Z,21.00
2022-09-07T15:34:11.808Z,21.10
2022-09-07T15:36:44.421Z,21.00
2022-09-07T15:39:21.136Z,20.90
2022-09-07T15:41:48.625Z,20.70
2022-09-07T15:44:17.368Z,20.50
2022-09-07T15:49:35.091Z,20.00
2022-09-07T15:52:05.848Z,19.60
2022-09-07T15:54:35.015Z,19.40
2022-09-07T15:59:50.744Z,18.80
2022-09-07T16:05:07.078Z,18.50
2022-09-07T16:10:21.333Z,18.30
2022-09-07T16:13:10.694Z,18.20
2022-09-07T16:15:35.363Z,18.10
2022-09-07T16:18:02.668Z,18.10
2022-09-07T16:20:32.683Z,18.10
2022-09-07T16:23:16.397Z,18.10
2022-09-07T16:25:56.571Z,18.10
2022-09-07T16:28:24.062Z,18.00
2022-09-07T16:30:51.211Z,18.00
2022-09-07T16:33:18.235Z,18.00
2022-09-07T16:35:59.865Z,18.00
2022-09-07T16:38:45.053Z,18.00
2022-09-07T16:41:20.880Z,17.90
2022-09-07T16:43:49.187Z,17.90
2022-09-07T16:46:19.101Z,17.90
2022-09-07T16:48:46.248Z,17.90
2022-09-07T16:51:16.449Z,17.90
2022-09-07T16:53:43.815Z,17.90
2022-09-07T16:56:13.911Z,17.90
2022-09-07T16:58:43.087Z,17.80
2022-09-07T17:01:15.617Z,17.80
2022-09-07T17:03:43.519Z,17.80
2022-09-07T17:06:13.276Z,17.80
2022-09-07T17:08:41.019Z,17.80
2022-09-07T17:11:16.133Z,17.80
2022-09-07T17:13:44.544Z,17.80
2022-09-07T17:16:13.112Z,17.80
2022-09-07T17:21:33.851Z,17.70
2022-09-07T17:24:04.330Z,17.70
2022-09-07T17:26:32.276Z,17.70
2022-09-07T17:29:00.900Z,17.70
2022-09-07T17:34:21.549Z,17.60
2022-09-07T17:36:48.881Z,17.60
2022-09-07T17:39:17.656Z,17.60
2022-09-07T17:41:46.551Z,17.60
2022-09-07T17:44:13.526Z,17.50
2022-09-07T17:46:40.523Z,17.60
2022-09-07T17:49:10.338Z,17.60
2022-09-07T17:51:38.043Z,17.50
2022-09-07T17:54:10.866Z,17.50
2022-09-07T17:56:39.995Z,17.50
2022-09-07T18:01:55.110Z,17.50
2022-09-07T18:04:22.859Z,17.40
2022-09-07T18:06:49.971Z,17.40
2022-09-07T18:09:17.662Z,17.40
2022-09-07T18:11:46.391Z,17.40
2022-09-07T18:14:15.363Z,17.40
2022-09-07T18:16:45.121Z,17.30
2022-09-07T18:19:13.304Z,17.30
2022-09-07T18:21:43.076Z,17.30
2022-09-07T18:24:17.052Z,17.30
2022-09-07T18:26:50.223Z,17.30
2022-09-07T18:29:28.714Z,17.30
2022-09-07T18:31:57.089Z,17.20
2022-09-07T18:34:24.799Z,17.20
2022-09-07T18:37:04.267Z,17.20
2022-09-07T18:39:35.673Z,17.10
2022-09-07T18:42:03.133Z,17.10
2022-09-07T18:47:27.969Z,17.10
2022-09-07T18:49:56.024Z,17.00
2022-09-07T18:55:10.404Z,16.90
2022-09-07T18:57:37.729Z,16.80
2022-09-07T19:00:07.531Z,16.80
2022-09-07T19:02:35.238Z,16.80
2022-09-07T19:07:49.376Z,16.70
2022-09-07T19:10:17.722Z,16.70
2022-09-07T19:12:46.055Z,16.60
2022-09-07T19:15:13.574Z,16.60
2022-09-07T19:17:40.632Z,16.60
2022-09-07T19:20:07.959Z,16.60
2022-09-07T19:22:34.884Z,16.60
2022-09-07T19:25:02.018Z,16.50
2022-09-07T19:27:29.189Z,16.50
2022-09-07T19:29:56.113Z,16.50
2022-09-07T19:32:23.087Z,16.40
2022-09-07T19:34:54.478Z,16.40
2022-09-07T19:37:25.765Z,16.40
2022-09-07T19:39:56.320Z,16.30
2022-09-07T19:42:24.424Z,16.30
2022-09-07T19:44:52.392Z,16.30
2022-09-07T19:47:25.935Z,16.30
2022-09-07T19:49:53.617Z,16.20
2022-09-07T19:52:23.371Z,16.20
2022-09-07T19:54:50.613Z,16.20
2022-09-07T19:57:17.920Z,16.10
2022-09-07T19:59:45.667Z,16.10
2022-09-07T20:02:13.395Z,16.10
2022-09-07T20:04:40.527Z,16.10
2022-09-07T20:07:07.477Z,16.10
2022-09-07T20:09:34.634Z,16.10
2022-09-07T20:12:03.781Z,16.10
2022-09-07T20:14:30.810Z,16.00
2022-09-07T20:16:57.903Z,16.00
2022-09-07T20:19:26.425Z,16.00
2022-09-07T20:21:57.577Z,16.00
2022-09-07T20:24:24.835Z,16.00
2022-09-07T20:26:51.790Z,16.00
2022-09-07T20:29:34.102Z,16.00
2022-09-07T20:32:02.147Z,16.00
2022-09-07T20:34:29.506Z,16.00
2022-09-07T20:36:57.099Z,15.90
2022-09-07T20:39:24.173Z,15.90
2022-09-07T20:41:51.706Z,15.90
2022-09-07T20:44:18.985Z,15.90
2022-09-07T20:46:54.592Z,15.80
2022-09-07T20:49:21.878Z,15.80
2022-09-07T20:51:49.442Z,15.80
2022-09-07T20:54:18.796Z,15.80
2022-09-07T20:56:45.700Z,15.80
2022-09-07T20:59:16.682Z,15.70
2022-09-07T21:01:43.853Z,15.70
2022-09-07T21:04:12.347Z,15.70
2022-09-07T21:06:39.188Z,15.60
2022-09-07T21:09:09.561Z,15.60
2022-09-07T21:11:36.864Z,15.60
2022-09-07T21:14:11.429Z,15.50
2022-09-07T21:16:39.490Z,15.50
2022-09-07T21:19:09.099Z,15.40
2022-09-07T21:21:39.497Z,15.40
2022-09-07T21:24:14.314Z,15.40
2022-09-07T21:26:41.654Z,15.30
2022-09-07T21:29:13.745Z,15.30
2022-09-07T21:31:40.798Z,15.30
2022-09-07T21:34:09.049Z,15.20
2022-09-07T21:36:36.120Z,15.20
2022-09-07T21:39:04.294Z,15.20
2022-09-07T21:41:31.479Z,15.20
2022-09-07T21:44:00.958Z,15.20
2022-09-07T21:46:30.474Z,15.10
2022-09-07T21:48:59.265Z,15.10
2022-09-07T21:51:27.315Z,15.10
2022-09-07T21:53:56.733Z,15.10
2022-09-07T21:56:24.335Z,15.10
2022-09-07T21:58:55.660Z,15.10
2022-09-07T22:01:24.110Z,15.10
2022-09-07T22:04:04.300Z,15.10
2022-09-07T22:06:32.429Z,15.00
2022-09-07T22:09:00.476Z,15.00
2022-09-07T22:11:28.761Z,15.00
2022-09-07T22:13:57.940Z,15.00
2022-09-07T22:16:24.896Z,15.00
2022-09-07T22:18:52.128Z,15.00
2022-09-07T22:21:22.340Z,15.00
2022-09-07T22:23:52.578Z,14.90
2022-09-07T22:26:23.544Z,14.90
2022-09-07T22:28:50.800Z,14.90
2022-09-07T22:31:24.380Z,14.90
2022-09-07T22:33:52.671Z,14.90
2022-09-07T22:36:24.609Z,14.90
2022-09-07T22:38:54.975Z,14.80
2022-09-07T22:41:24.947Z,14.80
2022-09-07T22:43:52.033Z,14.80
2022-09-07T22:46:20.483Z,14.80
2022-09-07T22:48:47.490Z,14.80
2022-09-07T22:51:15.183Z,14.80
2022-09-07T22:53:43.541Z,14.80
2022-09-07T22:56:16.764Z,14.80
2022-09-07T22:58:51.852Z,14.70
2022-09-07T23:01:20.951Z,14.80
2022-09-07T23:03:48.363Z,14.80
2022-09-07T23:06:27.629Z,14.80
2022-09-07T23:08:57.593Z,14.80
2022-09-07T23:11:25.590Z,14.80
2022-09-07T23:13:58.374Z,14.80
2022-09-07T23:16:26.385Z,14.80
2022-09-07T23:18:54.603Z,14.80
2022-09-07T23:21:21.968Z,14.80
2022-09-07T23:23:55.948Z,14.80
2022-09-07T23:26:24.872Z,14.80
2022-09-07T23:28:56.940Z,14.80
2022-09-07T23:31:25.547Z,14.80
2022-09-07T23:33:52.898Z,14.90
2022-09-07T23:36:20.522Z,14.90
2022-09-07T23:38:47.594Z,14.90
2022-09-07T23:41:14.764Z,14.90
2022-09-07T23:43:41.921Z,14.90
2022-09-07T23:46:10.727Z,14.90
2022-09-07T23:48:37.733Z,14.90
2022-09-07T23:51:05.836Z,14.90
2022-09-07T23:53:33.276Z,14.90
2022-09-07T23:56:00.366Z,15.00
2022-09-07T23:58:27.267Z,15.00
